Time;durP1;ratioP1;P1;durP2;ratioP2;P2;SDS_P1;SDS_P2;PMS_P1;PMS_P2;Temp;Humidity;BMP_temperature;BMP_pressure;BME280_temperature;BME280_humidity;BME280_pressure;Samples;Min_cycle;Max_cycle;Signal;HPM_P1;HPM_P2
2021/12/25 00:00:01;;;;;;;15.27;10.80;;;;;;;10.24;82.30;98386.00;345832;28;1409;-64
2021/12/25 00:00:15;;;;;;;14.73;10.75;;;;;;;10.25;82.55;98388.50;347497;28;1264;-65
2021/12/25 00:00:28;;;;;;;15.63;11.00;;;;;;;10.27;82.14;98389.28;347544;28;1241;-64
2021/12/25 00:00:40;;;;;;;16.60;11.13;;;;;;;10.29;82.12;98386.59;347185;28;2109;-65
2021/12/25 00:00:53;;;;;;;17.05;10.98;;;;;;;10.28;82.30;98387.50;347544;28;1050;-64
2021/12/25 00:01:09;;;;;;;16.77;10.57;;;;;;;10.22;82.37;98387.81;347431;28;1928;-64
2021/12/25 00:01:21;;;;;;;16.40;10.68;;;;;;;10.23;82.12;98387.75;347463;28;1173;-64
2021/12/25 00:01:35;;;;;;;17.50;10.80;;;;;;;10.26;82.50;98382.41;347883;28;1193;-65
2021/12/25 00:01:48;;;;;;;17.40;10.52;;;;;;;10.23;82.53;98379.97;347347;28;1140;-64
2021/12/25 00:02:07;;;;;;;16.25;10.35;;;;;;;10.27;82.56;98378.88;346072;28;1568;-65
2021/12/25 00:02:20;;;;;;;16.85;10.95;;;;;;;10.30;82.02;98383.09;345045;28;1131;-65
2021/12/25 00:02:34;;;;;;;17.33;11.15;;;;;;;10.30;81.98;98383.97;344974;28;1326;-64
2021/12/25 00:02:46;;;;;;;16.20;10.77;;;;;;;10.32;81.88;98384.72;344732;28;1043;-64
2021/12/25 00:02:59;;;;;;;16.48;10.95;;;;;;;10.33;81.84;98380.38;345132;28;1642;-64
2021/12/25 00:03:11;;;;;;;15.63;10.82;;;;;;;10.34;82.11;98385.47;345947;28;1050;-65
2021/12/25 00:03:24;;;;;;;14.48;10.43;;;;;;;10.36;82.21;98385.38;345743;28;1473;-65
2021/12/25 00:03:36;;;;;;;15.27;10.63;;;;;;;10.35;81.60;98374.16;346421;28;1049;-64
2021/12/25 00:03:51;;;;;;;15.88;10.85;;;;;;;10.37;81.86;98380.13;345976;28;1043;-64
2021/12/25 00:04:04;;;;;;;17.25;11.13;;;;;;;10.39;81.55;98383.47;345713;28;1854;-63
2021/12/25 00:04:16;;;;;;;16.58;10.63;;;;;;;10.40;81.78;98379.09;344898;28;1066;-64
2021/12/25 00:04:28;;;;;;;15.93;10.27;;;;;;;10.41;81.87;98382.56;346034;28;1019;-65
2021/12/25 00:04:40;;;;;;;15.35;10.25;;;;;;;10.41;81.83;98385.16;346131;28;1039;-64
2021/12/25 00:04:52;;;;;;;15.23;10.20;;;;;;;10.43;81.57;98389.34;347165;28;1054;-64
2021/12/25 00:05:05;;;;;;;14.88;10.20;;;;;;;10.41;81.51;98390.34;347545;28;1594;-65
2021/12/25 00:05:17;;;;;;;15.23;10.27;;;;;;;10.36;81.07;98386.25;347139;28;2769;-64
2021/12/25 00:05:29;;;;;;;14.60;10.07;;;;;;;10.38;81.67;98387.00;346938;28;2456;-65
2021/12/25 00:05:42;;;;;;;15.05;9.90;;;;;;;10.37;81.63;98395.69;345364;28;1035;-65
2021/12/25 00:05:55;;;;;;;14.88;10.20;;;;;;;10.38;81.88;98387.00;345150;28;1063;-64
2021/12/25 00:06:07;;;;;;;14.38;10.23;;;;;;;10.39;81.37;98388.66;344883;28;1086;-64
2021/12/25 00:06:20;;;;;;;14.43;10.48;;;;;;;10.36;81.75;98388.84;344905;28;1347;-65
2021/12/25 00:06:32;;;;;;;14.93;10.55;;;;;;;10.33;81.45;98388.97;344785;28;1054;-65
2021/12/25 00:06:44;;;;;;;16.10;10.82;;;;;;;10.25;82.19;98385.91;344884;28;1145;-65
2021/12/25 00:06:56;;;;;;;16.05;10.77;;;;;;;10.25;82.18;98390.28;344743;28;1902;-64
2021/12/25 00:07:08;;;;;;;16.27;10.80;;;;;;;10.25;82.06;98391.09;346102;28;1194;-64
2021/12/25 00:07:20;;;;;;;15.98;10.90;;;;;;;10.20;82.44;98393.09;345395;28;2000;-64
2021/12/25 00:07:33;;;;;;;15.73;10.90;;;;;;;10.20;82.17;98387.91;345934;28;1912;-64
2021/12/25 00:07:45;;;;;;;15.77;10.85;;;;;;;10.19;82.17;98392.25;346189;28;1046;-64
2021/12/25 00:07:57;;;;;;;16.02;10.35;;;;;;;10.22;82.41;98393.84;346051;28;1714;-65
2021/12/25 00:08:09;;;;;;;15.95;10.38;;;;;;;10.21;82.39;98394.78;346000;28;1141;-64
2021/12/25 00:08:23;;;;;;;16.35;10.55;;;;;;;10.22;82.53;98388.66;346268;28;1560;-65
2021/12/25 00:08:35;;;;;;;14.98;10.38;;;;;;;10.23;82.33;98386.91;346607;28;1338;-64
2021/12/25 00:08:47;;;;;;;14.63;10.30;;;;;;;10.24;82.49;98394.63;346387;28;1228;-65
2021/12/25 00:08:59;;;;;;;15.70;10.40;;;;;;;10.26;82.43;98395.41;346258;28;1560;-64
2021/12/25 00:09:12;;;;;;;15.25;10.30;;;;;;;10.26;82.36;98397.13;346280;28;1102;-64
2021/12/25 00:09:25;;;;;;;15.32;10.02;;;;;;;10.25;82.26;98388.50;345681;28;2207;-65
2021/12/25 00:09:37;;;;;;;15.98;10.10;;;;;;;10.25;82.10;98393.72;346159;28;1053;-65
2021/12/25 00:09:49;;;;;;;15.82;10.55;;;;;;;10.25;82.04;98392.88;345453;28;2218;-64
2021/12/25 00:10:01;;;;;;;14.23;10.27;;;;;;;10.24;82.47;98394.63;346216;28;1597;-65
2021/12/25 00:10:14;;;;;;;14.93;10.45;;;;;;;10.24;82.11;98394.63;344940;28;2198;-64
2021/12/25 00:10:26;;;;;;;15.27;10.52;;;;;;;10.24;82.48;98389.44;346284;28;1039;-65
2021/12/25 00:10:38;;;;;;;14.85;10.50;;;;;;;10.17;82.29;98388.06;345278;28;2082;-64
2021/12/25 00:10:52;;;;;;;14.60;10.35;;;;;;;10.22;82.38;98386.06;344825;28;1295;-64
2021/12/25 00:11:07;;;;;;;14.60;10.38;;;;;;;10.15;82.55;98395.09;344616;28;1570;-64
2021/12/25 00:11:19;;;;;;;15.30;10.63;;;;;;;10.13;82.24;98391.75;344852;28;2252;-64
2021/12/25 00:11:32;;;;;;;15.23;10.63;;;;;;;10.18;82.25;98390.59;346186;28;2219;-64
2021/12/25 00:11:44;;;;;;;15.52;10.68;;;;;;;10.20;82.29;98388.75;346191;28;1304;-64
2021/12/25 00:11:56;;;;;;;15.20;10.43;;;;;;;10.20;82.50;98395.69;345908;28;2575;-64
2021/12/25 00:12:08;;;;;;;15.38;10.27;;;;;;;10.20;82.51;98386.16;346557;28;934;-65
2021/12/25 00:12:20;;;;;;;15.05;10.02;;;;;;;10.22;82.46;98383.47;345939;28;1027;-64
2021/12/25 00:12:33;;;;;;;13.02;9.40;;;;;;;10.21;82.25;98389.59;345373;28;1775;-64
2021/12/25 00:12:45;;;;;;;12.95;9.40;;;;;;;10.25;82.47;98391.09;346239;28;1223;-64
2021/12/25 00:12:57;;;;;;;13.73;9.73;;;;;;;10.20;82.08;98383.56;345881;28;1697;-64
2021/12/25 00:13:09;;;;;;;14.35;10.18;;;;;;;10.24;82.18;98379.06;346255;28;1181;-65
2021/12/25 00:13:21;;;;;;;14.75;10.30;;;;;;;10.25;82.17;98385.91;346163;28;1532;-64
2021/12/25 00:13:34;;;;;;;13.45;9.70;;;;;;;10.25;82.28;98387.69;346319;28;1117;-65
2021/12/25 00:13:46;;;;;;;13.25;9.02;;;;;;;10.25;82.13;98385.09;346367;28;1058;-64
2021/12/25 00:13:58;;;;;;;13.10;9.15;;;;;;;10.26;82.27;98387.59;345516;28;2367;-64
2021/12/25 00:14:12;;;;;;;13.35;9.63;;;;;;;10.26;82.27;98387.59;346258;28;1070;-64
2021/12/25 00:14:28;;;;;;;13.75;10.20;;;;;;;10.16;82.22;98388.97;346051;28;1222;-64
2021/12/25 00:14:40;;;;;;;14.18;10.27;;;;;;;10.22;82.27;98380.88;346326;28;1557;-65
2021/12/25 00:14:54;;;;;;;14.13;9.95;;;;;;;10.26;82.11;98382.41;345734;28;2464;-64
2021/12/25 00:15:06;;;;;;;14.70;10.23;;;;;;;10.29;81.85;98381.41;345455;28;2385;-65
2021/12/25 00:15:18;;;;;;;16.33;10.43;;;;;;;10.27;81.89;98383.25;345742;28;1161;-64
2021/12/25 00:15:30;;;;;;;15.65;10.27;;;;;;;10.29;81.81;98382.25;346180;28;1046;-64
2021/12/25 00:15:43;;;;;;;15.02;10.23;;;;;;;10.31;82.11;98385.63;345295;28;2649;-64
2021/12/25 00:15:55;;;;;;;15.55;10.25;;;;;;;10.35;81.69;98381.94;346264;28;1045;-64
2021/12/25 00:16:08;;;;;;;14.65;10.10;;;;;;;10.37;81.80;98387.91;344970;28;1364;-64
2021/12/25 00:16:20;;;;;;;13.77;9.73;;;;;;;10.41;81.90;98383.41;344184;28;1082;-64
2021/12/25 00:16:32;;;;;;;14.20;9.82;;;;;;;10.42;81.72;98386.81;345012;28;1249;-64
2021/12/25 00:16:44;;;;;;;15.93;10.40;;;;;;;10.41;81.56;98390.34;344973;28;1019;-64
2021/12/25 00:16:58;;;;;;;16.23;10.45;;;;;;;10.34;81.79;98385.47;345179;28;1794;-64
2021/12/25 00:17:10;;;;;;;15.35;10.27;;;;;;;10.37;81.61;98385.31;345491;28;1867;-64
2021/12/25 00:17:22;;;;;;;13.68;10.10;;;;;;;10.40;81.62;98389.50;346136;28;1176;-64
2021/12/25 00:17:35;;;;;;;13.48;9.82;;;;;;;10.43;81.28;98381.56;344303;28;2585;-64
2021/12/25 00:17:47;;;;;;;14.23;10.10;;;;;;;10.43;81.29;98388.53;344806;28;1061;-64
2021/12/25 00:17:59;;;;;;;14.82;10.18;;;;;;;10.36;81.65;98383.66;344696;28;1712;-65
2021/12/25 00:18:11;;;;;;;14.63;9.98;;;;;;;10.34;81.72;98380.28;344594;28;1236;-64
2021/12/25 00:18:23;;;;;;;15.25;9.98;;;;;;;10.37;81.82;98380.13;344895;28;1224;-65
2021/12/25 00:18:36;;;;;;;14.68;10.10;;;;;;;10.32;81.74;98382.13;344943;28;1097;-64
2021/12/25 00:18:48;;;;;;;13.88;10.20;;;;;;;10.33;81.78;98383.78;344699;28;1201;-64
2021/12/25 00:19:00;;;;;;;15.68;10.43;;;;;;;10.32;81.50;98382.13;345439;28;1067;-64
2021/12/25 00:19:13;;;;;;;16.58;10.60;;;;;;;10.35;81.72;98381.94;345637;28;2373;-64
2021/12/25 00:19:25;;;;;;;16.42;10.70;;;;;;;10.29;82.04;98382.25;346174;28;1949;-65
2021/12/25 00:19:37;;;;;;;14.68;10.65;;;;;;;10.32;81.77;98382.13;345717;28;1058;-64
2021/12/25 00:19:49;;;;;;;14.55;10.20;;;;;;;10.34;81.84;98375.09;344844;28;1063;-65
2021/12/25 00:20:01;;;;;;;13.82;9.95;;;;;;;10.34;81.92;98380.28;345077;28;2179;-64
2021/12/25 00:20:14;;;;;;;14.40;10.20;;;;;;;10.36;81.89;98378.44;346337;28;2185;-64
2021/12/25 00:20:26;;;;;;;16.42;10.93;;;;;;;10.37;81.46;98380.13;346148;28;1245;-64
2021/12/25 00:20:38;;;;;;;17.13;10.95;;;;;;;10.37;81.68;98374.91;345090;28;1686;-64
2021/12/25 00:20:51;;;;;;;17.50;11.23;;;;;;;10.40;82.06;98379.09;346396;28;1070;-64
2021/12/25 00:21:07;;;;;;;15.77;10.85;;;;;;;10.42;81.65;98376.44;346178;28;1302;-64
2021/12/25 00:21:19;;;;;;;13.63;10.00;;;;;;;10.45;81.31;98381.47;346205;28;1134;-65
2021/12/25 00:21:31;;;;;;;13.45;9.80;;;;;;;10.46;81.34;98372.75;346192;28;1069;-64
2021/12/25 00:21:43;;;;;;;13.73;9.70;;;;;;;10.46;81.54;98377.94;346151;28;1066;-64
2021/12/25 00:21:56;;;;;;;14.40;9.90;;;;;;;10.48;81.46;98379.53;346379;28;1062;-64
2021/12/25 00:22:08;;;;;;;14.20;10.05;;;;;;;10.48;81.27;98371.75;346288;28;1021;-64
2021/12/25 00:22:21;;;;;;;14.02;9.90;;;;;;;10.50;81.50;98374.28;345324;28;2306;-65
2021/12/25 00:22:33;;;;;;;13.75;9.75;;;;;;;10.53;81.18;98376.72;346368;28;1050;-65
2021/12/25 00:22:45;;;;;;;14.05;9.57;;;;;;;10.53;80.88;98372.34;346324;28;971;-65
2021/12/25 00:23:00;;;;;;;13.80;9.63;;;;;;;10.53;80.99;98368.94;346533;28;1716;-65
2021/12/25 00:23:12;;;;;;;13.40;10.00;;;;;;;10.53;80.99;98368.94;346418;28;1027;-65
2021/12/25 00:23:24;;;;;;;12.57;9.52;;;;;;;10.53;81.36;98364.56;346419;28;1058;-64
2021/12/25 00:23:37;;;;;;;13.18;9.35;;;;;;;10.55;80.89;98369.69;346644;28;1292;-64
2021/12/25 00:23:51;;;;;;;13.15;9.38;;;;;;;10.57;80.89;98370.44;345508;28;2328;-64
2021/12/25 00:24:04;;;;;;;13.48;9.55;;;;;;;10.59;81.10;98373.78;346479;28;1464;-64
2021/12/25 00:24:16;;;;;;;14.02;9.80;;;;;;;10.60;81.08;98370.25;346259;28;2093;-65
2021/12/25 00:24:28;;;;;;;13.15;9.43;;;;;;;10.59;80.90;98373.78;345420;28;2180;-64
2021/12/25 00:24:44;;;;;;;13.63;9.10;;;;;;;10.57;80.75;98373.03;344871;28;1187;-64
2021/12/25 00:24:56;;;;;;;13.88;9.55;;;;;;;10.54;80.62;98373.19;344900;28;2471;-64
2021/12/25 00:25:08;;;;;;;14.07;10.27;;;;;;;10.55;80.77;98373.13;346296;28;1091;-64
2021/12/25 00:25:21;;;;;;;13.68;10.27;;;;;;;10.54;81.08;98375.78;345946;28;1034;-64
2021/12/25 00:25:39;;;;;;;12.85;9.70;;;;;;;10.54;81.12;98370.59;346431;28;1112;-64
2021/12/25 00:26:00;;;;;;;12.73;9.45;;;;;;;10.54;80.75;98375.78;345488;28;1694;-65
2021/12/25 00:26:26;;;;;;;13.93;9.98;;;;;;;10.53;80.79;98374.13;344811;28;1054;-64
2021/12/25 00:28:15;;;;;;;15.98;10.18;;;;;;;10.44;81.13;98372.00;344758;28;1647;-65
2021/12/25 00:29:03;;;;;;;17.13;10.75;;;;;;;10.36;81.52;98378.44;345120;28;1761;-64
2021/12/25 00:29:50;;;;;;;15.50;10.40;;;;;;;10.25;81.84;98375.53;345141;28;1063;-64
2021/12/25 00:30:28;;;;;;;16.75;10.80;;;;;;;10.28;82.02;98377.97;346486;28;1203;-64
2021/12/25 00:30:47;;;;;;;17.27;11.23;;;;;;;10.19;82.19;98375.84;345257;28;1807;-64
2021/12/25 00:31:21;;;;;;;16.85;11.65;;;;;;;10.19;82.17;98370.66;346224;28;1314;-64
2021/12/25 00:31:50;;;;;;;16.80;11.18;;;;;;;10.19;82.09;98373.25;345665;28;2190;-64
2021/12/25 00:33:30;;;;;;;16.17;11.40;;;;;;;10.19;82.04;98381.03;345617;28;1849;-64
2021/12/25 00:33:56;;;;;;;15.55;11.25;;;;;;;10.22;81.98;98385.22;344651;28;1345;-64
2021/12/25 00:34:10;;;;;;;17.33;10.75;;;;;;;10.20;82.36;98372.31;343897;28;2655;-64
2021/12/25 00:34:13;;;;;;;15.90;10.55;;;;;;;10.20;82.18;98377.50;340636;29;1081;-64
2021/12/25 00:34:23;;;;;;;17.35;10.63;;;;;;;10.25;82.22;98385.09;344593;28;1214;-64
2021/12/25 00:34:37;;;;;;;15.85;10.75;;;;;;;10.23;82.05;98382.56;344347;28;2393;-64
2021/12/25 00:34:50;;;;;;;15.55;10.93;;;;;;;10.25;81.98;98385.91;345912;28;2174;-65
2021/12/25 00:35:02;;;;;;;14.73;10.90;;;;;;;10.29;81.91;98378.81;346279;28;1168;-64
2021/12/25 00:35:14;;;;;;;15.05;11.00;;;;;;;10.26;82.10;98379.81;345893;28;1555;-63
2021/12/25 00:35:27;;;;;;;14.93;10.80;;;;;;;10.22;82.13;98374.84;346182;28;1309;-64
2021/12/25 00:35:42;;;;;;;15.73;10.63;;;;;;;10.15;82.32;98380.34;345271;28;2295;-64
2021/12/25 00:35:54;;;;;;;16.50;11.13;;;;;;;10.19;82.08;98381.03;345832;28;1836;-65
2021/12/25 00:36:06;;;;;;;16.23;11.18;;;;;;;10.17;82.36;98382.88;345783;28;1640;-63
2021/12/25 00:36:20;;;;;;;15.82;11.27;;;;;;;10.20;82.31;98377.50;345467;28;2308;-64
2021/12/25 00:36:32;;;;;;;15.57;11.10;;;;;;;10.07;82.52;98381.66;345899;28;1599;-63
2021/12/25 00:36:44;;;;;;;16.20;11.20;;;;;;;10.09;82.57;98382.44;346049;28;1038;-64
2021/12/25 00:36:56;;;;;;;16.67;11.27;;;;;;;10.06;82.72;98385.16;345930;28;1514;-64
2021/12/25 00:37:09;;;;;;;16.63;11.23;;;;;;;10.08;82.71;98388.53;345934;28;1324;-64
2021/12/25 00:37:21;;;;;;;15.93;11.15;;;;;;;10.11;82.71;98384.03;345345;28;2079;-64
2021/12/25 00:37:33;;;;;;;16.33;10.93;;;;;;;10.06;82.63;98386.03;345968;28;1087;-64
2021/12/25 00:37:45;;;;;;;17.77;11.30;;;;;;;10.09;82.35;98385.03;346031;28;1225;-64
2021/12/25 00:37:57;;;;;;;18.70;11.55;;;;;;;10.12;82.38;98384.84;346285;28;1594;-64
2021/12/25 00:38:09;;;;;;;18.17;11.48;;;;;;;10.15;82.29;98389.91;346032;28;1066;-64
2021/12/25 00:38:21;;;;;;;18.10;11.35;;;;;;;10.11;82.36;98385.78;346188;28;1207;-65
2021/12/25 00:38:36;;;;;;;18.23;11.50;;;;;;;10.12;82.70;98379.66;346146;28;1074;-65
2021/12/25 00:38:49;;;;;;;18.35;11.90;;;;;;;10.15;82.45;98377.75;346107;28;1042;-65
2021/12/25 00:39:04;;;;;;;18.92;12.05;;;;;;;10.11;82.69;98384.03;345982;28;1736;-64
2021/12/25 00:39:16;;;;;;;18.60;11.77;;;;;;;10.10;82.63;98386.69;345604;28;2306;-63
2021/12/25 00:39:29;;;;;;;18.83;11.88;;;;;;;10.11;82.61;98378.00;346121;28;1945;-64
2021/12/25 00:39:43;;;;;;;19.17;12.15;;;;;;;10.16;82.46;98378.59;345946;28;2226;-64
2021/12/25 00:39:56;;;;;;;18.20;11.95;;;;;;;10.20;82.40;98378.38;346307;28;1066;-64
2021/12/25 00:40:09;;;;;;;17.92;11.85;;;;;;;10.21;82.30;98381.81;345128;28;1026;-64
2021/12/25 00:40:22;;;;;;;18.17;11.95;;;;;;;10.24;82.26;98373.88;344594;28;1069;-64
2021/12/25 00:40:34;;;;;;;18.00;11.35;;;;;;;10.24;82.29;98381.66;345171;28;1872;-64
2021/12/25 00:40:46;;;;;;;16.75;11.00;;;;;;;10.26;81.86;98382.41;345490;28;1807;-64
2021/12/25 00:40:59;;;;;;;17.95;11.60;;;;;;;10.26;81.96;98379.81;345236;28;2105;-64
2021/12/25 00:41:13;;;;;;;17.63;11.57;;;;;;;10.24;82.04;98373.88;346011;28;1043;-64
2021/12/25 00:41:25;;;;;;;16.17;11.35;;;;;;;10.23;82.07;98371.34;345416;28;2342;-64
2021/12/25 00:41:37;;;;;;;16.08;11.38;;;;;;;10.24;82.19;98378.19;345864;28;1111;-64
2021/12/25 00:41:49;;;;;;;15.98;11.18;;;;;;;10.24;82.32;98373.88;346065;28;1102;-64
2021/12/25 00:42:04;;;;;;;16.15;11.43;;;;;;;10.28;81.98;98372.78;345934;28;1358;-64
2021/12/25 00:42:16;;;;;;;16.88;11.60;;;;;;;10.23;81.97;98379.97;346049;28;1138;-64
2021/12/25 00:42:28;;;;;;;17.65;11.52;;;;;;;10.19;82.17;98373.25;345009;28;1846;-64
2021/12/25 00:42:40;;;;;;;16.92;11.15;;;;;;;10.22;82.55;98378.28;345543;28;2234;-64
2021/12/25 00:42:52;;;;;;;18.25;11.55;;;;;;;10.17;82.21;98377.69;345807;28;1031;-64
2021/12/25 00:43:04;;;;;;;18.15;11.75;;;;;;;10.20;82.46;98373.19;346092;28;1649;-64
2021/12/25 00:43:16;;;;;;;18.05;11.90;;;;;;;10.16;82.40;98379.44;345328;28;2172;-64
2021/12/25 00:43:28;;;;;;;17.27;11.85;;;;;;;10.16;82.24;98378.59;346166;28;1212;-64
2021/12/25 00:43:41;;;;;;;17.85;12.18;;;;;;;10.19;82.40;98376.69;345360;28;1882;-65
2021/12/25 00:43:53;;;;;;;17.75;12.10;;;;;;;10.18;82.20;98374.16;345964;28;1042;-64
2021/12/25 00:44:05;;;;;;;18.77;12.10;;;;;;;10.22;82.42;98374.84;345858;28;1477;-64
2021/12/25 00:44:18;;;;;;;18.35;11.63;;;;;;;10.24;82.21;98376.47;346129;28;1112;-63
2021/12/25 00:44:32;;;;;;;17.52;11.23;;;;;;;10.24;82.26;98376.47;344446;28;1337;-64
2021/12/25 00:44:44;;;;;;;15.15;11.23;;;;;;;10.20;82.15;98382.69;344888;28;1249;-64
2021/12/25 00:44:56;;;;;;;15.77;11.77;;;;;;;10.18;82.30;98374.16;344741;28;1400;-64
2021/12/25 00:45:09;;;;;;;15.77;11.48;;;;;;;10.11;82.79;98378.81;346110;28;1301;-64
2021/12/25 00:45:21;;;;;;;17.45;12.15;;;;;;;10.11;82.54;98388.38;345290;28;2320;-64
2021/12/25 00:45:33;;;;;;;17.70;12.55;;;;;;;10.13;82.27;98377.00;345317;28;1952;-64
2021/12/25 00:45:46;;;;;;;18.38;12.70;;;;;;;10.14;82.68;98383.03;345930;28;1942;-64
2021/12/25 00:46:00;;;;;;;18.20;12.18;;;;;;;10.17;82.31;98375.91;346357;28;1557;-64
2021/12/25 00:46:12;;;;;;;17.95;11.70;;;;;;;10.19;82.52;98378.44;345765;28;1945;-64
2021/12/25 00:46:25;;;;;;;17.13;11.50;;;;;;;10.22;82.50;98374.84;346232;28;1035;-65
2021/12/25 00:46:37;;;;;;;15.65;11.55;;;;;;;10.26;82.10;98379.81;346128;28;1022;-64
2021/12/25 00:46:49;;;;;;;16.73;11.85;;;;;;;10.26;82.09;98382.41;346271;28;1057;-64
2021/12/25 00:47:04;;;;;;;16.90;11.80;;;;;;;10.24;82.02;98376.47;345697;28;1820;-64
2021/12/25 00:47:16;;;;;;;16.25;11.13;;;;;;;10.27;81.98;98375.47;346316;28;1097;-64
2021/12/25 00:47:28;;;;;;;16.15;11.25;;;;;;;10.25;82.38;98379.88;345526;28;2020;-65
2021/12/25 00:47:40;;;;;;;16.55;11.52;;;;;;;10.25;82.29;98380.72;344798;28;1350;-64
2021/12/25 00:47:52;;;;;;;16.40;11.73;;;;;;;10.27;81.81;98372.84;344706;28;2352;-64
2021/12/25 00:48:05;;;;;;;15.85;11.60;;;;;;;10.28;82.00;98377.13;345422;28;2681;-64
2021/12/25 00:48:17;;;;;;;16.67;11.82;;;;;;;10.27;81.84;98378.06;345359;28;2358;-64
2021/12/25 00:48:29;;;;;;;16.17;11.57;;;;;;;10.28;82.03;98380.56;345902;28;1114;-64
2021/12/25 00:48:41;;;;;;;15.70;11.35;;;;;;;10.30;82.16;98378.78;345653;28;1029;-64
2021/12/25 00:48:53;;;;;;;15.95;11.63;;;;;;;10.27;81.76;98375.47;346021;28;1320;-64
2021/12/25 00:49:05;;;;;;;16.65;11.77;;;;;;;10.32;82.27;98376.06;345481;28;2199;-63
2021/12/25 00:49:17;;;;;;;16.92;11.88;;;;;;;10.31;81.71;98377.00;345615;28;2523;-64
2021/12/25 00:49:29;;;;;;;16.88;11.85;;;;;;;10.30;81.71;98377.91;345882;28;1236;-64
2021/12/25 00:49:41;;;;;;;16.30;11.73;;;;;;;10.32;81.71;98376.94;345946;28;1028;-64
2021/12/25 00:49:53;;;;;;;17.27;11.98;;;;;;;10.28;81.89;98375.38;344948;28;1046;-64
2021/12/25 00:50:06;;;;;;;18.20;12.18;;;;;;;10.27;82.03;98373.69;344185;28;2197;-64
2021/12/25 00:50:18;;;;;;;17.55;11.95;;;;;;;10.29;81.68;98374.44;345960;28;2179;-65
2021/12/25 00:50:31;;;;;;;15.50;11.48;;;;;;;10.15;82.14;98379.53;345520;28;2780;-64
2021/12/25 00:50:43;;;;;;;15.45;11.30;;;;;;;10.17;82.46;98373.31;345394;28;1658;-64
2021/12/25 00:50:56;;;;;;;17.58;11.73;;;;;;;10.08;82.59;98376.41;345774;28;2292;-64
2021/12/25 00:51:08;;;;;;;18.75;12.18;;;;;;;10.06;82.53;98380.84;344536;28;2316;-64
2021/12/25 00:51:20;;;;;;;19.27;12.15;;;;;;;10.09;82.44;98379.84;345984;28;1196;-64
2021/12/25 00:51:44;;;;;;;18.05;12.05;;;;;;;10.12;82.49;98374.47;346134;28;1065;-64
2021/12/25 00:51:57;;;;;;;16.73;11.32;;;;;;;10.16;82.34;98370.78;345885;28;1649;-64
2021/12/25 00:52:09;;;;;;;16.08;11.20;;;;;;;10.20;82.26;98372.31;345703;28;1942;-64
2021/12/25 00:52:21;;;;;;;17.33;11.55;;;;;;;10.24;82.43;98383.38;346341;28;1107;-64
2021/12/25 00:52:33;;;;;;;18.45;12.10;;;;;;;10.25;82.07;98377.28;346336;28;1171;-64
2021/12/25 00:52:45;;;;;;;17.98;12.50;;;;;;;10.25;82.13;98370.34;345923;28;2246;-63
2021/12/25 00:52:57;;;;;;;17.45;12.35;;;;;;;10.25;81.83;98375.53;346047;28;1736;-64
2021/12/25 00:53:09;;;;;;;16.98;11.82;;;;;;;10.24;82.09;98368.66;346401;28;1479;-64
2021/12/25 00:53:22;;;;;;;16.88;11.85;;;;;;;10.22;82.14;98373.06;346323;28;1453;-64
2021/12/25 00:53:34;;;;;;;17.15;11.80;;;;;;;10.22;82.14;98365.28;346431;28;1242;-64
2021/12/25 00:53:46;;;;;;;17.77;11.75;;;;;;;10.19;82.35;98375.84;346452;28;1102;-64
2021/12/25 00:53:58;;;;;;;17.75;11.90;;;;;;;10.20;82.34;98367.97;346247;28;1335;-65
2021/12/25 00:54:11;;;;;;;17.65;12.27;;;;;;;10.22;82.34;98369.66;345821;28;1924;-64
2021/12/25 00:54:24;;;;;;;17.00;12.05;;;;;;;10.26;82.30;98365.97;345898;28;1160;-64
2021/12/25 00:54:37;;;;;;;16.35;11.82;;;;;;;10.28;82.31;98369.31;346128;28;1098;-64
2021/12/25 00:54:49;;;;;;;15.98;11.20;;;;;;;10.30;82.08;98368.38;346024;28;1007;-64
2021/12/25 00:55:03;;;;;;;16.60;11.20;;;;;;;10.32;81.90;98366.53;345965;28;1634;-64
2021/12/25 00:55:15;;;;;;;18.20;11.82;;;;;;;10.32;81.69;98371.75;345722;28;890;-64
2021/12/25 00:55:36;;;;;;;18.77;12.27;;;;;;;10.29;81.88;98368.41;345961;28;1034;-64
2021/12/25 00:55:49;;;;;;;18.60;12.27;;;;;;;10.23;82.19;98366.97;346177;28;1087;-64
2021/12/25 00:56:01;;;;;;;18.58;12.13;;;;;;;10.22;82.06;98365.28;345461;28;2363;-64
2021/12/25 00:56:13;;;;;;;18.38;12.30;;;;;;;10.26;81.99;98371.16;345793;28;1478;-64
2021/12/25 00:56:25;;;;;;;17.48;11.70;;;;;;;10.28;82.06;98365.00;345710;28;1820;-64
2021/12/25 00:56:37;;;;;;;17.35;11.77;;;;;;;10.28;82.01;98359.81;346305;28;1294;-64
2021/12/25 00:56:50;;;;;;;16.52;11.48;;;;;;;10.30;82.01;98365.78;345635;28;1347;-64
2021/12/25 00:57:02;;;;;;;16.42;11.52;;;;;;;10.32;82.13;98366.53;345634;28;1973;-64
2021/12/25 00:57:14;;;;;;;16.45;11.82;;;;;;;10.34;81.87;98369.91;345372;28;1167;-64
2021/12/25 00:57:26;;;;;;;17.77;11.95;;;;;;;10.34;81.52;98364.72;344773;28;1129;-64
2021/12/25 00:57:38;;;;;;;19.25;12.15;;;;;;;10.34;81.49;98363.84;344862;28;1103;-64
2021/12/25 00:57:50;;;;;;;18.88;11.90;;;;;;;10.32;81.69;98365.69;344755;28;1054;-64
2021/12/25 00:58:02;;;;;;;16.17;11.60;;;;;;;10.33;81.22;98368.22;343547;28;2180;-64
2021/12/25 00:58:15;;;;;;;18.27;11.77;;;;;;;10.36;81.48;98368.06;343645;28;1223;-64
2021/12/25 00:58:27;;;;;;;18.77;11.75;;;;;;;10.38;81.23;98360.16;343339;28;1090;-64
2021/12/25 00:58:39;;;;;;;17.70;11.70;;;;;;;10.40;81.16;98366.13;343368;28;1322;-64
2021/12/25 00:58:51;;;;;;;17.00;12.02;;;;;;;10.41;80.87;98369.56;343436;28;1042;-64
2021/12/25 00:59:03;;;;;;;17.08;11.75;;;;;;;10.44;81.20;98366.81;344095;28;1583;-64
2021/12/25 00:59:15;;;;;;;17.48;11.68;;;;;;;10.46;80.78;98372.75;344669;28;1189;-64
2021/12/25 00:59:27;;;;;;;17.52;12.05;;;;;;;10.47;80.76;98364.88;344719;28;1780;-64
2021/12/25 00:59:39;;;;;;;17.88;12.23;;;;;;;10.44;80.56;98366.81;346067;28;1017;-64
2021/12/25 00:59:51;;;;;;;18.65;12.18;;;;;;;10.43;81.10;98365.97;344722;28;2066;-64
2021/12/25 01:00:09;;;;;;;18.95;12.05;;;;;;;10.41;81.05;98365.22;345856;28;1497;-64
2021/12/25 01:00:21;;;;;;;16.83;11.38;;;;;;;10.33;81.21;98363.00;345373;28;2192;-64
2021/12/25 01:00:34;;;;;;;15.43;10.93;;;;;;;10.27;81.16;98370.25;346168;28;1115;-64
2021/12/25 01:00:46;;;;;;;16.17;11.32;;;;;;;10.28;80.18;98361.53;345804;28;2040;-63
2021/12/25 01:00:59;;;;;;;16.40;11.70;;;;;;;10.27;79.73;98368.50;346017;28;1631;-64
2021/12/25 01:01:11;;;;;;;18.08;12.07;;;;;;;10.23;81.18;98364.38;346004;28;1078;-64
2021/12/25 01:01:23;;;;;;;18.95;12.35;;;;;;;10.22;81.60;98361.84;346021;28;1189;-64
2021/12/25 01:01:37;;;;;;;18.73;12.23;;;;;;;10.27;81.50;98363.31;345954;28;1047;-64
2021/12/25 01:01:49;;;;;;;18.13;12.00;;;;;;;10.27;80.75;98368.50;345259;28;1760;-64
2021/12/25 01:02:02;;;;;;;17.88;12.10;;;;;;;10.28;79.94;98364.13;346072;28;1932;-64
2021/12/25 01:02:14;;;;;;;18.80;12.57;;;;;;;10.31;79.76;98370.03;345648;28;2406;-64
2021/12/25 01:02:27;;;;;;;20.35;12.88;;;;;;;10.31;79.77;98370.03;346070;28;1176;-65
2021/12/25 01:02:42;;;;;;;21.40;13.10;;;;;;;10.25;79.53;98370.34;345818;28;1031;-64
2021/12/25 01:02:55;;;;;;;19.65;12.77;;;;;;;10.26;79.49;98363.38;346106;28;1054;-64
2021/12/25 01:03:07;;;;;;;18.65;12.48;;;;;;;10.28;79.43;98365.00;345891;28;1019;-64
2021/12/25 01:03:19;;;;;;;19.65;12.65;;;;;;;10.30;79.68;98367.53;345932;28;1415;-64
2021/12/25 01:03:31;;;;;;;19.80;12.68;;;;;;;10.30;79.25;98363.19;345526;28;1765;-64
2021/12/25 01:03:43;;;;;;;18.63;12.77;;;;;;;10.31;79.37;98367.44;344769;28;1027;-65
2021/12/25 01:03:55;;;;;;;18.60;12.77;;;;;;;10.29;79.10;98366.66;344012;28;1956;-64
2021/12/25 01:04:07;;;;;;;18.80;12.70;;;;;;;10.28;79.18;98370.19;345019;28;2034;-64
2021/12/25 01:04:20;;;;;;;19.30;12.65;;;;;;;10.28;79.05;98365.00;343250;28;1289;-64
2021/12/25 01:04:32;;;;;;;19.15;12.52;;;;;;;10.26;79.02;98366.84;343490;28;1055;-64
2021/12/25 01:04:44;;;;;;;18.67;12.50;;;;;;;10.28;79.29;98369.31;344575;28;1075;-64
2021/12/25 01:04:56;;;;;;;18.50;12.48;;;;;;;10.28;79.58;98365.00;344489;28;1287;-65
2021/12/25 01:05:09;;;;;;;18.73;12.32;;;;;;;10.29;79.46;98366.66;345030;28;1165;-64
2021/12/25 01:05:22;;;;;;;18.52;12.20;;;;;;;10.25;78.71;98369.50;344071;28;2099;-64